createdAt,value
2019-02-17T13:36:59.950Z,27.88
2019-02-17T13:42:19.528Z,27.22
2019-02-17T13:47:39.054Z,26.08
2019-02-17T13:52:58.810Z,25.18
2019-02-17T13:58:17.857Z,22.60
2019-02-17T14:03:37.436Z,23.36
2019-02-17T14:08:57.229Z,23.18
2019-02-17T14:14:17.036Z,22.76
2019-02-17T14:19:36.393Z,22.17
2019-02-17T14:24:55.623Z,23.28
2019-02-17T14:30:14.720Z,21.12
2019-02-17T14:35:34.430Z,20.35
2019-02-17T14:40:55.573Z,20.18
2019-02-17T14:46:15.913Z,19.21
2019-02-17T14:51:36.207Z,16.96
2019-02-17T14:56:56.368Z,15.42
2019-02-17T15:02:17.590Z,15.30
2019-02-17T15:07:37.169Z,13.64
2019-02-17T15:12:56.975Z,12.40
2019-02-17T15:18:17.175Z,10.37
2019-02-17T15:23:36.391Z,9.60
2019-02-17T15:28:55.968Z,9.16
2019-02-17T15:34:18.711Z,8.45
2019-02-17T15:39:35.376Z,7.61
2019-02-17T15:44:55.239Z,7.27
2019-02-17T15:50:14.815Z,6.70
2019-02-17T15:55:35.749Z,6.30
2019-02-17T16:00:55.571Z,5.98
2019-02-17T16:06:15.867Z,5.80
2019-02-17T16:11:35.742Z,5.78
2019-02-17T16:16:55.767Z,5.74
2019-02-17T16:22:15.559Z,5.02
2019-02-17T16:27:35.885Z,4.91
2019-02-17T16:32:56.013Z,4.69
2019-02-17T16:38:15.950Z,4.13
2019-02-17T16:43:35.794Z,3.94
2019-02-17T16:48:55.707Z,3.63
2019-02-17T16:54:15.259Z,3.57
2019-02-17T16:59:35.519Z,3.44
2019-02-17T17:04:55.668Z,3.10
2019-02-17T17:10:16.260Z,2.97
2019-02-17T17:15:36.770Z,2.95
2019-02-17T17:20:56.620Z,2.83
2019-02-17T17:26:16.148Z,2.51
2019-02-17T17:31:36.029Z,2.27
2019-02-17T17:36:58.340Z,1.92
2019-02-17T17:42:18.848Z,1.77
2019-02-17T17:47:38.397Z,1.83
2019-02-17T17:52:58.714Z,1.56
2019-02-17T17:58:18.461Z,1.47
2019-02-17T18:03:38.541Z,1.40
2019-02-17T18:08:58.589Z,1.08
2019-02-17T18:14:20.779Z,0.93
2019-02-17T18:19:42.371Z,0.80
2019-02-17T18:25:04.894Z,0.80
2019-02-17T18:30:25.095Z,0.62
2019-02-17T18:35:45.424Z,0.63
2019-02-17T18:41:05.755Z,0.70
2019-02-17T18:46:26.535Z,0.53
2019-02-17T18:51:46.057Z,0.40
2019-02-17T18:57:08.263Z,0.45
2019-02-17T19:02:26.072Z,0.22
2019-02-17T19:07:47.680Z,0.18
2019-02-17T19:13:09.749Z,0.03
2019-02-17T19:18:30.117Z,-0.06
2019-02-17T19:23:50.864Z,0.04
2019-02-17T19:29:11.870Z,0.04
2019-02-17T19:34:34.522Z,-0.05
2019-02-17T19:39:54.078Z,-0.07
2019-02-17T19:45:14.572Z,-0.27
2019-02-17T19:50:34.514Z,-0.30
2019-02-17T19:55:55.337Z,-0.38
2019-02-17T20:01:15.600Z,-0.57
2019-02-17T20:06:35.614Z,-0.63
2019-02-17T20:11:55.633Z,-0.63
2019-02-17T20:17:16.091Z,-0.64
2019-02-17T20:22:36.508Z,-0.74
2019-02-17T20:27:56.128Z,-0.74
2019-02-17T20:33:15.791Z,-0.92
2019-02-17T20:38:35.952Z,-0.92
2019-02-17T20:43:56.275Z,-0.97
2019-02-17T20:49:18.071Z,-0.94
2019-02-17T20:54:37.691Z,-1.11
2019-02-17T20:59:57.849Z,-1.20
2019-02-17T21:05:20.782Z,-1.25
2019-02-17T21:10:42.776Z,-1.27
2019-02-17T21:16:02.743Z,-1.34
2019-02-17T21:21:22.824Z,-1.45
2019-02-17T21:26:43.107Z,-1.62
2019-02-17T21:32:02.716Z,-1.62
2019-02-17T21:37:22.445Z,-1.60
2019-02-17T21:42:42.829Z,-1.60
2019-02-17T21:48:02.917Z,-1.69
2019-02-17T21:53:22.297Z,-1.74
2019-02-17T21:58:41.854Z,-1.68
2019-02-17T22:04:02.892Z,-1.82
2019-02-17T22:09:22.468Z,-1.76
2019-02-17T22:14:43.964Z,-1.71
2019-02-17T22:20:03.993Z,-1.71
2019-02-17T22:25:24.404Z,-1.74
2019-02-17T22:30:43.946Z,-1.76
2019-02-17T22:36:04.203Z,-1.84
2019-02-17T22:41:23.623Z,-1.95
2019-02-17T22:46:43.225Z,-2.08
2019-02-17T22:52:02.213Z,-2.12
2019-02-17T22:57:21.974Z,-2.13
2019-02-17T23:02:42.900Z,-2.05
2019-02-17T23:08:02.949Z,-2.06
2019-02-17T23:13:22.325Z,-2.24
2019-02-17T23:18:41.970Z,-2.21
2019-02-17T23:24:01.253Z,-2.27
2019-02-17T23:29:20.644Z,-2.26
2019-02-17T23:34:40.420Z,-2.19
2019-02-17T23:40:00.761Z,-2.28
2019-02-17T23:45:20.289Z,-2.27
2019-02-17T23:50:40.042Z,-2.38
2019-02-17T23:55:59.444Z,-2.54
